Farmington Hills, Michigan
Current Conditions -  °F | °C
As of 8:17 AM on Sunday 23 Nov 2014 (Local Time) from KVLL Reporting Station
Overcast Overcast  
Wind Chill: 43°   Ceiling: 2500
Heat Index: 46°   Visibility: 7mi
Dew Point: 45°   Wind: 7mph
Humidity: 93%   Direction: 180°S
Pressure: 29.93"   Gusts: NA
Location:  42.4647°N, 83.3764°W
Report Text: KVLL 231317Z AUTO 18006KT 7SM SCT007 BKN025 OVC100 08/07 A2993 RMK AO2
Loading
Personal Weather Stations






























Interactive Weather Map New forecast layout! Learn more

10-Day Weather Forecast

Advertisements
Track Severe Weather on mobile